Terminal Aerodrome Forecast
Issued by NWS Atlanta, GA

Home | Current Version | Previous Version | Text Only | Print | Product List | Glossary On
Versions: 1 2 3 4 5 6 7 8 9 10 11 12 13 14 15 16 17 18 19 20 21 22 23 24 25 26 27 28 29
000
FTUS42 KFFC 241735
TAFAHN
TAF
KAHN 241735Z 2418/2518 15006KT P6SM SCT060
     FM250000 13005KT P6SM FEW080
     FM251000 09005KT P6SM BKN007
     FM251400 10005KT P6SM BKN013=

USA.gov is the U.S. government's official web portal to all federal, state and local government web resources and services.